Time;durP1;ratioP1;P1;durP2;ratioP2;P2;SDS_P1;SDS_P2;PMS_P1;PMS_P2;Temp;Humidity;BMP_temperature;BMP_pressure;BME280_temperature;BME280_humidity;BME280_pressure;Samples;Min_cycle;Max_cycle;Signal;HPM_P1;HPM_P2
2023/07/02 00:01:49;;;;;;;5.32;1.92;;;;;;;16.21;100.00;100348.72;4924446;28;20051;-72
2023/07/02 00:04:19;;;;;;;13.77;5.22;;;;;;;16.35;100.00;100334.13;4951315;28;20469;-70
2023/07/02 00:06:47;;;;;;;8.63;3.42;;;;;;;16.26;100.00;100327.69;4943395;28;20059;-69
2023/07/02 00:09:14;;;;;;;5.78;2.50;;;;;;;16.18;100.00;100332.81;4940842;28;20110;-71
2023/07/02 00:11:44;;;;;;;12.48;4.72;;;;;;;16.30;100.00;100331.91;4945733;28;20079;-73
2023/07/02 00:14:10;;;;;;;7.82;2.97;;;;;;;16.24;100.00;100332.97;4944473;28;20105;-73
2023/07/02 00:16:38;;;;;;;11.45;4.07;;;;;;;16.23;100.00;100335.00;4939596;28;20055;-73
2023/07/02 00:19:06;;;;;;;6.03;2.22;;;;;;;16.23;100.00;100332.19;4947745;28;20058;-71
2023/07/02 00:21:33;;;;;;;13.25;5.60;;;;;;;16.34;100.00;100331.78;4942150;28;20596;-74
2023/07/02 00:24:00;;;;;;;12.27;3.78;;;;;;;16.28;100.00;100325.22;4934503;28;20509;-71
2023/07/02 00:26:27;;;;;;;8.23;3.05;;;;;;;16.13;100.00;100341.81;4942271;28;20175;-72
2023/07/02 00:28:55;;;;;;;10.90;4.82;;;;;;;16.34;100.00;100326.91;4942214;28;20075;-72
2023/07/02 00:31:23;;;;;;;13.32;5.30;;;;;;;16.31;100.00;100324.28;4937923;28;20135;-75
2023/07/02 00:33:50;;;;;;;2.92;1.73;;;;;;;16.25;100.00;100326.94;4942485;28;20669;-68
2023/07/02 00:36:17;;;;;;;17.15;5.13;;;;;;;16.41;100.00;100323.81;4933094;28;20110;-71
2023/07/02 00:38:46;;;;;;;11.45;4.05;;;;;;;16.29;100.00;100333.16;4940224;28;20461;-72
2023/07/02 00:41:13;;;;;;;10.68;3.75;;;;;;;16.29;100.00;100333.16;4945771;28;20094;-72
2023/07/02 00:43:43;;;;;;;7.15;2.88;;;;;;;16.20;100.00;100341.53;4948933;28;20125;-72
2023/07/02 00:46:19;;;;;;;11.35;4.90;;;;;;;16.11;100.00;100335.13;4942742;28;20059;-70
2023/07/02 00:48:47;;;;;;;13.80;6.20;;;;;;;16.24;100.00;100330.16;4945452;28;20137;-73
2023/07/02 00:51:15;;;;;;;15.05;5.80;;;;;;;16.26;100.00;100324.88;4936796;28;20466;-72
2023/07/02 00:53:44;;;;;;;14.90;5.47;;;;;;;16.26;100.00;100316.47;4944527;28;20130;-71
2023/07/02 00:56:12;;;;;;;12.15;4.60;;;;;;;16.25;100.00;100318.53;4943889;28;20109;-68
2023/07/02 00:58:46;;;;;;;13.52;5.25;;;;;;;16.24;100.00;100319.72;4939821;28;20055;-71
2023/07/02 01:01:20;;;;;;;9.77;3.00;;;;;;;16.15;100.00;100299.28;4932546;28;20067;-72
2023/07/02 01:03:59;;;;;;;9.77;3.67;;;;;;;16.18;100.00;100301.19;4930850;28;20051;-70
2023/07/02 01:06:28;;;;;;;17.38;4.13;;;;;;;16.12;100.00;100301.00;4932548;28;20143;-71
2023/07/02 01:08:56;;;;;;;11.45;4.57;;;;;;;16.24;100.00;100290.91;4930816;28;20178;-74
2023/07/02 01:11:32;;;;;;;10.05;2.95;;;;;;;16.08;100.00;100263.94;4931065;28;20106;-71
2023/07/02 01:14:22;;;;;;;14.20;5.28;;;;;;;16.18;100.00;100264.72;4931108;28;20134;-71
2023/07/02 01:16:50;;;;;;;12.63;5.18;;;;;;;16.12;100.00;100263.78;4937007;28;20067;-71
2023/07/02 01:19:33;;;;;;;7.57;2.30;;;;;;;16.04;100.00;100273.75;4942043;28;20098;-71
2023/07/02 01:22:01;;;;;;;10.30;3.75;;;;;;;15.89;100.00;100278.38;4938243;28;20533;-73
2023/07/02 01:24:28;;;;;;;12.27;3.63;;;;;;;15.95;100.00;100277.31;4941607;28;20101;-71
2023/07/02 01:26:56;;;;;;;13.50;4.82;;;;;;;15.98;100.00;100284.00;4939102;28;20101;-74
2023/07/02 01:29:22;;;;;;;8.55;2.92;;;;;;;15.94;100.00;100274.97;4941401;28;20178;-71
2023/07/02 01:31:49;;;;;;;10.32;4.47;;;;;;;15.92;100.00;100297.06;4948393;28;20052;-71
2023/07/02 01:34:15;;;;;;;15.20;5.45;;;;;;;16.00;100.00;100307.53;4945172;28;20051;-71
2023/07/02 01:36:42;;;;;;;15.02;5.88;;;;;;;16.00;100.00;100306.75;4942778;28;20055;-71
2023/07/02 01:39:08;;;;;;;14.15;3.90;;;;;;;15.92;100.00;100314.69;4945968;28;20074;-71
2023/07/02 01:41:42;;;;;;;16.50;5.20;;;;;;;15.95;100.00;100312.97;4943244;28;20503;-72
2023/07/02 01:44:09;;;;;;;13.80;3.92;;;;;;;15.84;100.00;100321.03;4947604;28;20118;-70
2023/07/02 01:46:36;;;;;;;14.13;4.15;;;;;;;15.92;100.00;100317.47;4942228;28;20059;-70
2023/07/02 01:49:03;;;;;;;10.40;2.08;;;;;;;15.80;100.00;100318.38;4948590;28;20729;-72
2023/07/02 01:51:29;;;;;;;9.40;2.60;;;;;;;15.85;100.00;100320.59;4951511;28;20055;-70
2023/07/02 01:53:56;;;;;;;14.38;5.15;;;;;;;15.94;100.00;100314.22;4947820;28;20111;-72
2023/07/02 01:56:22;;;;;;;7.07;3.17;;;;;;;15.82;100.00;100324.31;4950890;28;20123;-71
2023/07/02 01:58:49;;;;;;;14.60;4.30;;;;;;;15.91;100.00;100321.53;4949821;28;20145;-70
2023/07/02 02:01:15;;;;;;;11.85;3.83;;;;;;;15.81;100.00;100308.75;4932546;28;20157;-72
2023/07/02 02:03:42;;;;;;;9.00;3.60;;;;;;;15.84;100.00;100307.81;4944404;28;20052;-71
2023/07/02 02:06:09;;;;;;;15.65;5.57;;;;;;;15.92;100.00;100316.69;4949064;28;20142;-71
2023/07/02 02:08:35;;;;;;;9.52;3.42;;;;;;;15.88;100.00;100324.47;4946929;28;20705;-69
2023/07/02 02:11:02;;;;;;;8.70;3.00;;;;;;;15.82;100.00;100321.50;4951014;28;20058;-72
2023/07/02 02:13:28;;;;;;;17.63;5.43;;;;;;;15.91;100.00;100326.34;4948073;28;20458;-72
2023/07/02 02:15:55;;;;;;;8.43;3.65;;;;;;;15.83;100.00;100341.91;4949308;28;20129;-72
2023/07/02 02:18:22;;;;;;;18.20;6.03;;;;;;;15.94;100.00;100334.63;4946894;28;20476;-72
2023/07/02 02:20:48;;;;;;;9.50;3.70;;;;;;;15.72;100.00;100330.34;4961856;28;20055;-73
2023/07/02 02:23:16;;;;;;;13.32;4.97;;;;;;;15.83;100.00;100334.25;4940003;28;20572;-72
2023/07/02 02:25:42;;;;;;;20.05;6.18;;;;;;;15.83;100.00;100339.09;4944359;28;20660;-73
2023/07/02 02:28:09;;;;;;;13.77;4.32;;;;;;;15.79;100.00;100344.06;4951250;28;20058;-71
2023/07/02 02:30:36;;;;;;;20.08;6.90;;;;;;;15.91;100.00;100338.34;4946455;28;20047;-72
2023/07/02 02:33:02;;;;;;;17.17;4.80;;;;;;;15.79;100.00;100339.25;4948318;28;20516;-71
2023/07/02 02:35:29;;;;;;;10.35;3.70;;;;;;;15.78;100.00;100332.09;4946028;28;20047;-72
2023/07/02 02:37:55;;;;;;;19.27;6.93;;;;;;;15.85;100.00;100331.78;4948545;28;20055;-74
2023/07/02 02:40:22;;;;;;;15.13;5.30;;;;;;;15.84;100.00;100335.84;4941106;28;20075;-71
2023/07/02 02:42:48;;;;;;;21.27;6.85;;;;;;;15.86;100.00;100335.38;4939925;28;20446;-71
2023/07/02 02:45:15;;;;;;;16.63;5.85;;;;;;;15.66;100.00;100346.97;4945142;28;20117;-72
2023/07/02 02:47:41;;;;;;;14.25;5.28;;;;;;;15.79;100.00;100333.63;4947071;28;20154;-72
2023/07/02 02:50:09;;;;;;;10.13;3.03;;;;;;;15.78;100.00;100331.28;4946224;28;20086;-71
2023/07/02 02:52:36;;;;;;;16.67;5.88;;;;;;;15.69;100.00;100334.84;4947061;28;20058;-72
2023/07/02 02:55:03;;;;;;;16.92;5.82;;;;;;;15.63;100.00;100339.47;4946181;28;20082;-73
2023/07/02 02:57:29;;;;;;;22.95;7.28;;;;;;;15.71;100.00;100329.56;4949700;28;20459;-71
2023/07/02 02:59:56;;;;;;;24.17;6.70;;;;;;;15.78;100.00;100337.69;4950150;28;20083;-71
2023/07/02 03:02:22;;;;;;;16.10;5.00;;;;;;;15.74;100.00;100330.66;4948502;28;20538;-74
2023/07/02 03:04:52;;;;;;;18.88;6.10;;;;;;;15.71;100.00;100332.38;4936387;28;20529;-73
2023/07/02 03:07:19;;;;;;;21.45;7.03;;;;;;;15.72;100.00;100339.53;4933674;28;20087;-72
2023/07/02 03:09:46;;;;;;;21.35;7.13;;;;;;;15.73;100.00;100337.53;4940545;28;20177;-73
2023/07/02 03:12:12;;;;;;;7.32;2.65;;;;;;;15.69;100.00;100350.91;4942290;28;20102;-72
2023/07/02 03:14:39;;;;;;;17.70;5.97;;;;;;;15.69;100.00;100354.47;4947429;28;20119;-72
2023/07/02 03:17:05;;;;;;;20.23;6.35;;;;;;;15.72;100.00;100349.94;4950854;28;20114;-73
2023/07/02 03:19:32;;;;;;;24.02;8.60;;;;;;;15.71;100.00;100354.00;4950023;28;20138;-72
2023/07/02 03:21:58;;;;;;;19.08;5.72;;;;;;;15.66;100.00;100368.63;4940243;28;20126;-71
2023/07/02 03:24:25;;;;;;;23.67;9.85;;;;;;;15.75;100.00;100363.84;4950046;28;20051;-71
2023/07/02 03:26:52;;;;;;;23.98;6.68;;;;;;;15.64;100.00;100369.09;4947562;28;20082;-73
2023/07/02 03:29:20;;;;;;;23.63;8.45;;;;;;;15.64;100.00;100371.88;4942146;28;20075;-72
2023/07/02 03:31:46;;;;;;;26.73;10.27;;;;;;;15.73;100.00;100371.91;4943821;28;20693;-72
2023/07/02 03:34:13;;;;;;;25.35;10.57;;;;;;;15.69;100.00;100376.88;4947604;28;20047;-71
2023/07/02 03:36:40;;;;;;;23.63;7.97;;;;;;;15.66;100.00;100379.84;4943599;28;20055;-73
2023/07/02 03:39:06;;;;;;;25.58;7.85;;;;;;;15.56;100.00;100379.00;4949450;28;20051;-72
2023/07/02 03:41:36;;;;;;;27.10;9.65;;;;;;;15.59;100.00;100386.47;4951031;28;20059;-71
2023/07/02 03:44:02;;;;;;;29.70;11.15;;;;;;;15.67;100.00;100382.19;4943378;28;20625;-72
2023/07/02 03:46:30;;;;;;;24.95;7.97;;;;;;;15.63;100.00;100380.75;4946839;28;20085;-71
2023/07/02 03:48:57;;;;;;;24.60;8.88;;;;;;;15.67;100.00;100379.38;4949481;28;20110;-71
2023/07/02 03:51:24;;;;;;;26.88;8.15;;;;;;;15.65;100.00;100383.84;4949395;28;20235;-73
2023/07/02 03:53:51;;;;;;;22.55;8.68;;;;;;;15.55;100.00;100385.06;4947149;28;20089;-73
2023/07/02 03:56:17;;;;;;;22.25;8.02;;;;;;;15.63;100.00;100386.34;4946847;28;20119;-74
2023/07/02 03:58:44;;;;;;;23.27;8.73;;;;;;;15.55;100.00;100396.25;4942347;28;20320;-72
2023/07/02 04:01:11;;;;;;;28.23;8.90;;;;;;;15.59;100.00;100400.50;4947564;28;20142;-73
2023/07/02 04:03:47;;;;;;;25.92;9.10;;;;;;;15.52;100.00;100400.00;4947493;28;20071;-72
2023/07/02 04:06:14;;;;;;;23.52;8.60;;;;;;;15.49;100.00;100407.28;4945834;28;20533;-74
2023/07/02 04:08:40;;;;;;;26.85;9.50;;;;;;;15.56;100.00;100404.22;4947676;28;20058;-72
2023/07/02 04:11:07;;;;;;;25.00;9.05;;;;;;;15.55;100.00;100410.28;4942348;28;20142;-71
2023/07/02 04:13:33;;;;;;;25.77;7.50;;;;;;;15.52;100.00;100414.00;4936881;28;20150;-73
2023/07/02 04:16:00;;;;;;;23.02;8.00;;;;;;;15.57;100.00;100416.22;4939360;28;20081;-72
2023/07/02 04:18:28;;;;;;;24.38;7.28;;;;;;;15.48;100.00;100418.94;4937472;28;20142;-71
2023/07/02 04:20:56;;;;;;;28.90;9.25;;;;;;;15.42;100.00;100427.16;4945958;28;20127;-73
2023/07/02 04:23:22;;;;;;;22.98;7.60;;;;;;;15.47;100.00;100417.41;4939107;28;20086;-73
2023/07/02 04:25:49;;;;;;;25.27;8.90;;;;;;;15.44;100.00;100424.69;4939596;28;20532;-73
2023/07/02 04:28:36;;;;;;;22.45;8.93;;;;;;;15.50;100.00;100431.28;4932804;28;20059;-74
2023/07/02 04:31:02;;;;;;;26.23;9.20;;;;;;;15.56;100.00;100432.22;4940497;28;20187;-71
2023/07/02 04:33:35;;;;;;;28.35;10.25;;;;;;;15.55;100.00;100430.66;4931976;28;20102;-72
2023/07/02 04:36:05;;;;;;;25.20;9.27;;;;;;;15.49;100.00;100431.75;4948643;28;20063;-71
2023/07/02 04:38:31;;;;;;;26.23;10.75;;;;;;;15.60;100.00;100438.50;4938063;28;21005;-73
2023/07/02 04:41:04;;;;;;;22.33;8.73;;;;;;;15.56;100.00;100437.84;4956061;28;20126;-72
2023/07/02 04:43:32;;;;;;;30.63;9.27;;;;;;;15.57;100.00;100442.22;4947733;28;20058;-72
2023/07/02 04:46:00;;;;;;;27.58;11.05;;;;;;;15.65;100.00;100446.28;4944634;28;20756;-73
2023/07/02 04:48:27;;;;;;;25.60;10.30;;;;;;;15.64;100.00;100450.34;4940736;28;20138;-73
2023/07/02 04:50:54;;;;;;;24.85;10.07;;;;;;;15.59;100.00;100450.94;4947930;28;20139;-73
2023/07/02 04:53:20;;;;;;;22.55;8.68;;;;;;;15.57;100.00;100450.63;4941731;28;20142;-73
2023/07/02 04:55:47;;;;;;;28.35;12.40;;;;;;;15.69;100.00;100452.53;4943231;28;20051;-74
2023/07/02 04:58:13;;;;;;;25.60;11.05;;;;;;;15.70;100.00;100454.09;4948752;28;20047;-70
2023/07/02 05:00:40;;;;;;;30.52;11.35;;;;;;;15.56;100.00;100451.06;4940828;28;20845;-72
2023/07/02 05:03:06;;;;;;;9.48;2.90;;;;;;;15.53;100.00;100455.56;4938781;28;20055;-74
2023/07/02 05:05:33;;;;;;;31.63;11.63;;;;;;;15.59;100.00;100459.34;4936639;28;20103;-72
2023/07/02 05:08:00;;;;;;;33.67;13.00;;;;;;;15.64;100.00;100453.16;4932915;28;20060;-71
2023/07/02 05:10:26;;;;;;;16.02;5.65;;;;;;;15.54;100.00;100457.13;4936150;28;20087;-72
2023/07/02 05:12:53;;;;;;;9.77;3.78;;;;;;;15.57;100.00;100461.84;4932352;28;20453;-73
2023/07/02 05:15:19;;;;;;;30.88;10.20;;;;;;;15.51;100.00;100458.06;4941974;28;20091;-69
2023/07/02 05:17:46;;;;;;;14.63;4.60;;;;;;;15.55;100.00;100461.50;4942744;28;20051;-73
2023/07/02 05:20:12;;;;;;;32.88;13.10;;;;;;;15.72;100.00;100462.84;4950575;28;20127;-70
2023/07/02 05:22:39;;;;;;;35.97;14.02;;;;;;;15.73;100.00;100463.63;4945103;28;20226;-72
2023/07/02 05:25:06;;;;;;;35.70;15.23;;;;;;;15.77;100.00;100472.69;4945880;28;20469;-75
2023/07/02 05:27:32;;;;;;;27.92;10.18;;;;;;;15.66;100.00;100472.31;4943860;28;20134;-72
2023/07/02 05:29:59;;;;;;;19.38;7.82;;;;;;;15.57;100.00;100469.44;4947674;28;20051;-73
2023/07/02 05:32:26;;;;;;;38.38;14.38;;;;;;;15.73;100.00;100472.81;4942846;28;20078;-72
2023/07/02 05:34:52;;;;;;;16.75;6.88;;;;;;;15.63;100.00;100476.03;4948754;28;20054;-72
2023/07/02 05:37:19;;;;;;;27.95;11.98;;;;;;;15.78;100.00;100477.03;4951490;28;20047;-73
2023/07/02 05:39:45;;;;;;;33.47;13.38;;;;;;;15.83;100.00;100473.66;4946482;28;20573;-72
2023/07/02 05:42:12;;;;;;;27.67;11.18;;;;;;;15.81;100.00;100481.72;4946370;28;20158;-71
2023/07/02 05:44:38;;;;;;;31.15;12.15;;;;;;;15.92;100.00;100484.91;4944568;28;20130;-71
2023/07/02 05:47:05;;;;;;;26.05;9.15;;;;;;;15.92;100.00;100488.50;4943624;28;20110;-71
2023/07/02 05:49:32;;;;;;;29.88;9.98;;;;;;;15.82;100.00;100484.06;4943357;28;20055;-71
2023/07/02 05:51:58;;;;;;;32.47;13.35;;;;;;;16.00;100.00;100483.41;4939964;28;20075;-71
2023/07/02 05:54:25;;;;;;;15.50;4.47;;;;;;;15.92;100.00;100484.91;4948658;28;20356;-71
2023/07/02 05:56:51;;;;;;;33.92;12.50;;;;;;;16.06;100.00;100487.13;4951178;28;20110;-71
2023/07/02 05:59:19;;;;;;;32.00;11.88;;;;;;;15.99;100.00;100485.41;4943794;28;20560;-74
2023/07/02 06:01:45;;;;;;;21.27;7.35;;;;;;;15.92;100.00;100482.88;4944309;28;20119;-71
2023/07/02 06:04:12;;;;;;;17.73;6.35;;;;;;;15.83;100.00;100491.25;4942202;28;20506;-72
2023/07/02 06:06:38;;;;;;;28.98;11.95;;;;;;;15.87;100.00;100493.91;4940619;28;20054;-72
2023/07/02 06:09:05;;;;;;;27.52;10.82;;;;;;;15.95;100.00;100498.00;4936675;28;20138;-68
2023/07/02 06:11:31;;;;;;;29.65;11.07;;;;;;;15.99;100.00;100505.03;4937675;28;20075;-71
2023/07/02 06:13:58;;;;;;;31.90;10.18;;;;;;;15.99;100.00;100493.81;4938401;28;20514;-72
2023/07/02 06:16:25;;;;;;;28.58;10.65;;;;;;;15.98;100.00;100502.69;4942841;28;20103;-70
2023/07/02 06:18:51;;;;;;;35.65;11.55;;;;;;;16.13;100.00;100503.72;4934140;28;20150;-73
2023/07/02 06:21:19;;;;;;;23.02;8.63;;;;;;;16.06;100.00;100504.75;4938442;28;20082;-73
2023/07/02 06:23:46;;;;;;;25.25;10.93;;;;;;;16.16;100.00;100503.56;4934768;28;20051;-72
2023/07/02 06:26:12;;;;;;;29.10;10.10;;;;;;;16.29;100.00;100501.47;4940397;28;20058;-73
2023/07/02 06:28:39;;;;;;;24.98;11.32;;;;;;;16.44;100.00;100501.69;4941313;28;20163;-72
2023/07/02 06:31:06;;;;;;;26.15;9.57;;;;;;;16.52;100.00;100508.56;4944364;28;20051;-71
2023/07/02 06:33:33;;;;;;;25.27;8.43;;;;;;;16.51;100.00;100513.38;4944854;28;20499;-73
2023/07/02 06:35:59;;;;;;;31.08;9.75;;;;;;;16.46;100.00;100511.19;4951659;28;20084;-73
2023/07/02 06:38:26;;;;;;;27.30;9.63;;;;;;;16.56;100.00;100500.78;4951759;28;20095;-74
2023/07/02 06:40:52;;;;;;;29.92;9.82;;;;;;;16.65;100.00;100504.38;4944871;28;20090;-72
2023/07/02 06:43:19;;;;;;;27.08;8.77;;;;;;;16.85;100.00;100498.34;4948844;28;20047;-73
2023/07/02 06:45:45;;;;;;;27.48;8.65;;;;;;;16.92;100.00;100507.22;4946611;28;20051;-71
2023/07/02 06:48:14;;;;;;;27.30;9.38;;;;;;;17.01;100.00;100507.25;4951398;28;20126;-74
2023/07/02 06:50:44;;;;;;;23.65;8.55;;;;;;;16.90;100.00;100506.94;4949559;28;20069;-73
2023/07/02 06:53:10;;;;;;;28.13;10.10;;;;;;;17.10;100.00;100504.47;4946966;28;20510;-71
2023/07/02 06:55:37;;;;;;;15.63;4.28;;;;;;;16.84;100.00;100525.63;4951509;28;20070;-73
2023/07/02 06:58:08;;;;;;;24.58;9.18;;;;;;;17.08;100.00;100515.38;4948938;28;20071;-72
2023/07/02 07:00:37;;;;;;;22.13;8.45;;;;;;;17.01;100.00;100524.09;4946853;28;20052;-72
2023/07/02 07:03:04;;;;;;;26.85;10.07;;;;;;;17.05;100.00;100524.72;4945998;28;20055;-73
2023/07/02 07:05:31;;;;;;;27.52;8.55;;;;;;;16.97;100.00;100523.47;4945064;28;20137;-73
2023/07/02 07:08:00;;;;;;;18.70;7.05;;;;;;;17.15;100.00;100529.13;4947026;28;20051;-73
2023/07/02 07:10:27;;;;;;;27.58;9.90;;;;;;;17.19;100.00;100526.94;4944958;28;20106;-72
2023/07/02 07:12:54;;;;;;;27.85;8.32;;;;;;;17.29;100.00;100528.53;4950151;28;20391;-74
2023/07/02 07:15:20;;;;;;;16.98;5.70;;;;;;;17.27;100.00;100533.84;4946104;28;20569;-70
2023/07/02 07:17:47;;;;;;;21.48;7.13;;;;;;;17.27;100.00;100522.59;4951041;28;20106;-71
2023/07/02 07:20:14;;;;;;;27.02;8.15;;;;;;;17.42;100.00;100526.34;4950151;28;20047;-71
2023/07/02 07:22:41;;;;;;;20.80;6.93;;;;;;;17.40;100.00;100536.50;4943085;28;20046;-72
2023/07/02 07:25:08;;;;;;;26.23;9.23;;;;;;;17.57;100.00;100537.72;4946544;28;20059;-73
2023/07/02 07:27:34;;;;;;;25.60;8.65;;;;;;;17.66;100.00;100542.56;4951251;28;20082;-71
2023/07/02 07:30:01;;;;;;;22.38;7.90;;;;;;;17.47;100.00;100532.56;4942776;28;20139;-71
2023/07/02 07:32:28;;;;;;;29.13;10.48;;;;;;;17.65;100.00;100532.59;4942511;28;20055;-73
2023/07/02 07:34:54;;;;;;;26.83;10.98;;;;;;;17.78;100.00;100547.25;4954296;28;20130;-71
2023/07/02 07:37:21;;;;;;;20.83;8.23;;;;;;;17.87;100.00;100548.00;4947614;28;20247;-72
2023/07/02 07:39:47;;;;;;;22.13;7.10;;;;;;;17.51;100.00;100531.16;4946060;28;20055;-71
2023/07/02 07:42:17;;;;;;;19.70;5.57;;;;;;;17.61;100.00;100546.03;4947504;28;20106;-72
2023/07/02 07:44:48;;;;;;;21.63;6.43;;;;;;;17.89;100.00;100550.34;4947602;28;20130;-71
2023/07/02 07:47:15;;;;;;;27.55;9.25;;;;;;;18.06;100.00;100546.72;4946616;28;20142;-70
2023/07/02 07:49:41;;;;;;;25.05;10.02;;;;;;;18.14;100.00;100552.81;4953268;28;20061;-70
2023/07/02 07:52:08;;;;;;;28.52;8.82;;;;;;;18.21;100.00;100558.09;4946345;28;20074;-70
2023/07/02 07:54:35;;;;;;;18.65;5.55;;;;;;;18.07;100.00;100558.78;4944431;28;20054;-70
2023/07/02 07:57:05;;;;;;;23.73;8.68;;;;;;;18.11;100.00;100554.53;4947648;28;20106;-69
2023/07/02 07:59:32;;;;;;;18.25;7.15;;;;;;;18.01;100.00;100564.25;4944056;28;20106;-70
2023/07/02 08:01:59;;;;;;;19.83;7.53;;;;;;;17.88;100.00;100574.06;4946861;28;20126;-70
2023/07/02 08:04:25;;;;;;;26.02;5.65;;;;;;;17.82;100.00;100562.69;4947891;28;20050;-72
2023/07/02 08:06:52;;;;;;;25.50;9.27;;;;;;;17.96;100.00;100564.13;4940400;28;20066;-69
2023/07/02 08:09:19;;;;;;;26.25;8.52;;;;;;;17.88;100.00;100565.63;4944746;28;20473;-71
2023/07/02 08:11:46;;;;;;;13.98;5.13;;;;;;;17.67;100.00;100573.03;4947747;28;20055;-68
2023/07/02 08:14:13;;;;;;;28.60;8.90;;;;;;;17.78;100.00;100562.06;4947958;28;20137;-70
2023/07/02 08:16:39;;;;;;;14.25;3.40;;;;;;;17.83;100.00;100581.13;4944796;28;20151;-71
2023/07/02 08:19:06;;;;;;;23.70;7.90;;;;;;;17.84;100.00;100584.72;4944666;28;20052;-70
2023/07/02 08:21:32;;;;;;;24.95;9.80;;;;;;;17.97;100.00;100579.72;4945082;28;20066;-70
2023/07/02 08:23:59;;;;;;;12.40;4.75;;;;;;;18.12;100.00;100575.78;4941131;28;20098;-70
2023/07/02 08:26:25;;;;;;;21.60;7.28;;;;;;;18.30;100.00;100577.78;4949697;28;20054;-70
2023/07/02 08:28:52;;;;;;;18.02;5.18;;;;;;;18.39;100.00;100580.56;4944965;28;20121;-71
2023/07/02 08:31:18;;;;;;;16.55;5.72;;;;;;;18.23;100.00;100590.13;4962096;28;20058;-70
2023/07/02 08:33:45;;;;;;;24.13;7.97;;;;;;;18.26;100.00;100588.44;4948583;28;20058;-70
2023/07/02 08:36:13;;;;;;;26.73;9.50;;;;;;;18.39;100.00;100591.84;4947671;28;20075;-71
2023/07/02 08:38:41;;;;;;;25.27;8.35;;;;;;;18.50;100.00;100589.28;4948959;28;20051;-74
2023/07/02 08:41:08;;;;;;;20.80;8.05;;;;;;;18.31;100.00;100579.34;4948435;28;20050;-73
2023/07/02 08:43:36;;;;;;;17.23;6.00;;;;;;;18.18;100.00;100587.97;4945819;28;20514;-73
2023/07/02 08:46:02;;;;;;;22.38;7.95;;;;;;;18.32;100.00;100600.59;4942159;28;20044;-70
2023/07/02 08:48:29;;;;;;;19.60;6.60;;;;;;;18.41;100.00;100595.72;4946552;28;20061;-70
2023/07/02 08:50:56;;;;;;;12.43;4.28;;;;;;;18.12;100.00;100589.84;4948324;28;20056;-67
2023/07/02 08:53:29;;;;;;;27.27;7.72;;;;;;;18.33;100.00;100599.34;4945683;28;20139;-71
2023/07/02 08:55:56;;;;;;;21.35;6.43;;;;;;;18.56;100.00;100595.84;4946097;28;20079;-70
2023/07/02 08:58:23;;;;;;;13.68;4.45;;;;;;;18.55;100.00;100597.88;4949273;28;20758;-70
2023/07/02 09:01:07;;;;;;;16.95;4.50;;;;;;;18.57;100.00;100603.03;4945312;28;20429;-70
2023/07/02 09:03:34;;;;;;;19.73;6.75;;;;;;;18.54;100.00;100606.78;4949238;28;20061;-70
2023/07/02 09:06:01;;;;;;;12.70;3.90;;;;;;;18.71;100.00;100613.59;4945321;28;20102;-72
2023/07/02 09:08:28;;;;;;;13.80;4.13;;;;;;;18.53;100.00;100608.03;4948470;28;20055;-70
2023/07/02 09:11:04;;;;;;;18.00;5.68;;;;;;;18.49;100.00;100607.41;4948013;28;20447;-66
2023/07/02 09:13:31;;;;;;;19.55;6.70;;;;;;;18.39;100.00;100609.47;4948283;28;20079;-71
2023/07/02 09:15:57;;;;;;;25.10;6.10;;;;;;;18.39;100.00;100620.75;4947971;28;20550;-70
2023/07/02 09:18:24;;;;;;;19.05;6.22;;;;;;;18.70;100.00;100610.00;4941384;28;20134;-69
2023/07/02 09:20:53;;;;;;;25.63;5.85;;;;;;;18.61;100.00;100606.44;4945844;28;20047;-72
2023/07/02 09:23:20;;;;;;;12.70;3.92;;;;;;;18.35;100.00;100619.34;4942277;28;20056;-69
2023/07/02 09:25:47;;;;;;;21.38;6.43;;;;;;;18.54;100.00;100609.59;4946644;28;20055;-71
2023/07/02 09:28:18;;;;;;;22.13;7.15;;;;;;;18.57;100.00;100614.28;4949331;28;20057;-70
2023/07/02 09:30:56;;;;;;;20.63;6.25;;;;;;;18.77;100.00;100611.72;4947902;28;20059;-69
2023/07/02 09:33:24;;;;;;;19.40;7.03;;;;;;;18.99;100.00;100604.56;4947829;28;20141;-70
2023/07/02 09:35:51;;;;;;;14.00;4.40;;;;;;;18.79;100.00;100609.19;4946141;28;20721;-69
2023/07/02 09:38:22;;;;;;;20.23;6.40;;;;;;;18.94;100.00;100610.09;4947732;28;20134;-72
2023/07/02 09:40:53;;;;;;;25.17;7.57;;;;;;;19.08;100.00;100601.72;4943396;28;20209;-72
2023/07/02 09:43:20;;;;;;;19.65;6.40;;;;;;;19.30;100.00;100599.34;4949321;28;20525;-73
2023/07/02 09:45:51;;;;;;;21.52;7.32;;;;;;;19.49;100.00;100614.13;4946726;28;20055;-71
2023/07/02 09:48:21;;;;;;;22.10;5.72;;;;;;;19.59;100.00;100605.13;4945680;28;20055;-71
2023/07/02 09:50:49;;;;;;;21.73;6.78;;;;;;;19.78;100.00;100595.25;4942163;28;20063;-72
2023/07/02 09:53:16;;;;;;;21.77;6.57;;;;;;;19.95;100.00;100612.50;4943492;28;20047;-70
2023/07/02 09:55:44;;;;;;;19.23;6.72;;;;;;;20.01;100.00;100604.91;4937956;28;20090;-69
2023/07/02 09:58:14;;;;;;;20.52;6.60;;;;;;;20.09;100.00;100617.38;4947806;28;20070;-70
2023/07/02 10:00:40;;;;;;;22.73;6.85;;;;;;;19.93;100.00;100612.19;4949160;28;20055;-69
2023/07/02 10:03:07;;;;;;;17.27;6.25;;;;;;;19.85;100.00;100608.22;4944098;28;20516;-73
2023/07/02 10:05:34;;;;;;;18.35;5.90;;;;;;;19.87;100.00;100619.00;4947816;28;20047;-70
2023/07/02 10:08:15;;;;;;;13.90;4.38;;;;;;;19.31;100.00;100622.69;4948850;28;20066;-71
2023/07/02 10:10:41;;;;;;;12.35;4.45;;;;;;;19.48;100.00;100621.00;4942998;28;20063;-72
2023/07/02 10:13:08;;;;;;;18.15;4.53;;;;;;;19.30;100.00;100615.47;4951235;28;20061;-72
2023/07/02 10:15:39;;;;;;;18.83;5.63;;;;;;;19.55;100.00;100629.13;4950219;28;20051;-72
2023/07/02 10:18:06;;;;;;;17.55;6.07;;;;;;;19.60;100.00;100626.44;4951005;28;20113;-70
2023/07/02 10:20:37;;;;;;;18.95;6.20;;;;;;;19.79;100.00;100618.59;4951869;28;20058;-69
2023/07/02 10:23:05;;;;;;;22.10;6.38;;;;;;;19.96;100.00;100627.38;4953721;28;20526;-72
2023/07/02 10:25:34;;;;;;;17.45;6.05;;;;;;;20.04;100.00;100632.16;4952105;28;20052;-72
2023/07/02 10:28:13;;;;;;;19.50;5.97;;;;;;;20.34;100.00;100630.94;4948282;28;20066;-72
2023/07/02 10:30:40;;;;;;;20.83;6.93;;;;;;;20.26;100.00;100632.59;4945567;28;20051;-71
2023/07/02 10:33:14;;;;;;;18.25;6.68;;;;;;;20.44;100.00;100628.78;4948966;28;20134;-70
2023/07/02 10:35:44;;;;;;;17.43;4.67;;;;;;;20.53;100.00;100637.97;4946479;28;20047;-69
2023/07/02 10:38:21;;;;;;;16.02;5.40;;;;;;;20.06;98.56;100645.78;4951757;28;20133;-71
2023/07/02 10:40:55;;;;;;;16.30;5.13;;;;;;;20.01;100.00;100650.03;4944136;28;20059;-72
2023/07/02 10:43:30;;;;;;;17.98;6.25;;;;;;;20.31;100.00;100634.72;4949037;28;20128;-70
2023/07/02 10:45:59;;;;;;;18.27;5.85;;;;;;;20.26;100.00;100635.44;4948929;28;20464;-70
2023/07/02 10:48:26;;;;;;;15.63;5.10;;;;;;;20.30;100.00;100623.94;4951119;28;20055;-68
2023/07/02 10:50:53;;;;;;;13.77;4.95;;;;;;;20.34;100.00;100624.50;4947916;28;20047;-69
2023/07/02 10:53:20;;;;;;;15.88;4.80;;;;;;;20.33;100.00;100617.31;4950847;28;20059;-70
2023/07/02 10:55:55;;;;;;;21.70;6.72;;;;;;;20.61;100.00;100627.81;4941334;28;20044;-70
2023/07/02 10:58:23;;;;;;;14.85;5.13;;;;;;;20.57;100.00;100643.41;4949914;28;20089;-69
2023/07/02 11:00:51;;;;;;;16.40;5.85;;;;;;;20.66;100.00;100635.59;4935243;28;20055;-71
2023/07/02 11:03:23;;;;;;;23.77;6.40;;;;;;;20.50;100.00;100633.28;4937924;28;20110;-72
2023/07/02 11:05:50;;;;;;;10.43;3.47;;;;;;;20.59;100.00;100646.53;4938328;28;20052;-70
2023/07/02 11:08:18;;;;;;;18.35;6.63;;;;;;;20.78;100.00;100637.34;4935882;28;20071;-70
2023/07/02 11:10:44;;;;;;;12.23;4.07;;;;;;;20.28;99.95;100649.81;4936105;28;20130;-69
2023/07/02 11:13:15;;;;;;;13.73;3.50;;;;;;;20.44;100.00;100626.75;4936606;28;20103;-68